sensor_id;sensor_type;location;lat;lon;timestamp;P1;durP1;ratioP1;P2;durP2;ratioP2
53064;SDS011;38948;48.376;-4.312;2022-10-28T00:00:21;2.58;;;0.57;;
53064;SDS011;38948;48.376;-4.312;2022-10-28T00:02:47;0.90;;;0.60;;
53064;SDS011;38948;48.376;-4.312;2022-10-28T00:05:13;1.15;;;0.50;;
53064;SDS011;38948;48.376;-4.312;2022-10-28T00:07:38;2.25;;;0.75;;
53064;SDS011;38948;48.376;-4.312;2022-10-28T00:10:04;4.82;;;0.98;;
53064;SDS011;38948;48.376;-4.312;2022-10-28T00:12:35;1.63;;;0.80;;
53064;SDS011;38948;48.376;-4.312;2022-10-28T00:15:02;1.50;;;0.70;;
53064;SDS011;38948;48.376;-4.312;2022-10-28T00:17:30;1.55;;;0.75;;
53064;SDS011;38948;48.376;-4.312;2022-10-28T00:19:56;1.20;;;0.60;;
53064;SDS011;38948;48.376;-4.312;2022-10-28T00:22:22;2.50;;;0.82;;
53064;SDS011;38948;48.376;-4.312;2022-10-28T00:24:48;2.45;;;0.98;;
53064;SDS011;38948;48.376;-4.312;2022-10-28T00:27:16;4.22;;;0.73;;
53064;SDS011;38948;48.376;-4.312;2022-10-28T00:29:42;4.43;;;0.82;;
53064;SDS011;38948;48.376;-4.312;2022-10-28T00:32:08;0.60;;;0.40;;
53064;SDS011;38948;48.376;-4.312;2022-10-28T00:34:35;1.00;;;0.70;;
53064;SDS011;38948;48.376;-4.312;2022-10-28T00:37:01;1.67;;;0.77;;
53064;SDS011;38948;48.376;-4.312;2022-10-28T00:39:27;1.23;;;0.43;;
53064;SDS011;38948;48.376;-4.312;2022-10-28T00:41:54;1.23;;;0.60;;
53064;SDS011;38948;48.376;-4.312;2022-10-28T00:52:46;1.85;;;0.80;;
53064;SDS011;38948;48.376;-4.312;2022-10-28T00:55:19;1.80;;;0.50;;
53064;SDS011;38948;48.376;-4.312;2022-10-28T00:57:46;2.50;;;0.80;;
53064;SDS011;38948;48.376;-4.312;2022-10-28T01:00:13;0.93;;;0.52;;
53064;SDS011;38948;48.376;-4.312;2022-10-28T01:02:44;1.25;;;0.60;;
53064;SDS011;38948;48.376;-4.312;2022-10-28T01:05:12;2.65;;;0.60;;
53064;SDS011;38948;48.376;-4.312;2022-10-28T01:07:41;5.03;;;0.65;;
53064;SDS011;38948;48.376;-4.312;2022-10-28T01:10:08;1.90;;;0.70;;
53064;SDS011;38948;48.376;-4.312;2022-10-28T01:12:57;2.38;;;0.75;;
53064;SDS011;38948;48.376;-4.312;2022-10-28T01:16:14;3.38;;;0.80;;
53064;SDS011;38948;48.376;-4.312;2022-10-28T01:30:17;1.90;;;0.70;;
53064;SDS011;38948;48.376;-4.312;2022-10-28T01:40:10;1.52;;;0.70;;
53064;SDS011;38948;48.376;-4.312;2022-10-28T01:45:48;1.90;;;0.60;;
53064;SDS011;38948;48.376;-4.312;2022-10-28T01:51:17;1.83;;;0.77;;
53064;SDS011;38948;48.376;-4.312;2022-10-28T01:53:49;1.67;;;0.70;;
53064;SDS011;38948;48.376;-4.312;2022-10-28T01:56:25;1.35;;;0.80;;
53064;SDS011;38948;48.376;-4.312;2022-10-28T01:58:55;1.92;;;0.70;;
53064;SDS011;38948;48.376;-4.312;2022-10-28T02:01:24;4.03;;;0.60;;
53064;SDS011;38948;48.376;-4.312;2022-10-28T02:03:52;1.90;;;0.70;;
53064;SDS011;38948;48.376;-4.312;2022-10-28T02:06:19;2.65;;;0.90;;
53064;SDS011;38948;48.376;-4.312;2022-10-28T02:14:50;2.45;;;0.70;;
53064;SDS011;38948;48.376;-4.312;2022-10-28T02:20:31;3.42;;;1.00;;
53064;SDS011;38948;48.376;-4.312;2022-10-28T02:23:14;2.08;;;0.73;;
53064;SDS011;38948;48.376;-4.312;2022-10-28T02:28:21;1.27;;;0.70;;
53064;SDS011;38948;48.376;-4.312;2022-10-28T02:31:17;3.05;;;0.70;;
53064;SDS011;38948;48.376;-4.312;2022-10-28T02:34:03;0.88;;;0.70;;
53064;SDS011;38948;48.376;-4.312;2022-10-28T02:36:34;1.23;;;0.73;;
53064;SDS011;38948;48.376;-4.312;2022-10-28T02:39:04;4.28;;;0.90;;
53064;SDS011;38948;48.376;-4.312;2022-10-28T02:44:24;4.00;;;0.95;;
53064;SDS011;38948;48.376;-4.312;2022-10-28T02:46:58;2.35;;;0.95;;
53064;SDS011;38948;48.376;-4.312;2022-10-28T02:49:28;3.03;;;0.98;;
53064;SDS011;38948;48.376;-4.312;2022-10-28T02:52:01;2.55;;;0.70;;
53064;SDS011;38948;48.376;-4.312;2022-10-28T02:55:15;3.30;;;0.80;;
53064;SDS011;38948;48.376;-4.312;2022-10-28T02:57:40;3.05;;;0.88;;
53064;SDS011;38948;48.376;-4.312;2022-10-28T03:00:19;3.08;;;1.00;;
53064;SDS011;38948;48.376;-4.312;2022-10-28T03:02:48;3.50;;;0.90;;
53064;SDS011;38948;48.376;-4.312;2022-10-28T03:05:15;2.05;;;0.63;;
53064;SDS011;38948;48.376;-4.312;2022-10-28T03:07:41;2.03;;;0.80;;
53064;SDS011;38948;48.376;-4.312;2022-10-28T03:10:07;2.90;;;0.93;;
53064;SDS011;38948;48.376;-4.312;2022-10-28T03:12:34;3.63;;;1.15;;
53064;SDS011;38948;48.376;-4.312;2022-10-28T03:15:00;5.20;;;1.80;;
53064;SDS011;38948;48.376;-4.312;2022-10-28T03:17:27;3.70;;;1.08;;
53064;SDS011;38948;48.376;-4.312;2022-10-28T03:19:53;2.70;;;1.00;;
53064;SDS011;38948;48.376;-4.312;2022-10-28T03:22:19;2.95;;;0.95;;
53064;SDS011;38948;48.376;-4.312;2022-10-28T03:24:45;3.65;;;0.82;;
53064;SDS011;38948;48.376;-4.312;2022-10-28T03:27:11;5.35;;;1.00;;
53064;SDS011;38948;48.376;-4.312;2022-10-28T03:29:37;4.10;;;1.02;;
53064;SDS011;38948;48.376;-4.312;2022-10-28T03:32:04;5.38;;;1.10;;
53064;SDS011;38948;48.376;-4.312;2022-10-28T03:34:30;5.25;;;1.10;;
53064;SDS011;38948;48.376;-4.312;2022-10-28T03:36:56;4.38;;;1.10;;
53064;SDS011;38948;48.376;-4.312;2022-10-28T03:39:22;4.05;;;0.85;;
53064;SDS011;38948;48.376;-4.312;2022-10-28T03:41:48;4.35;;;0.90;;
53064;SDS011;38948;48.376;-4.312;2022-10-28T03:44:14;2.78;;;0.90;;
53064;SDS011;38948;48.376;-4.312;2022-10-28T03:46:40;4.88;;;1.08;;
53064;SDS011;38948;48.376;-4.312;2022-10-28T03:49:07;5.45;;;1.13;;
53064;SDS011;38948;48.376;-4.312;2022-10-28T03:51:36;2.88;;;0.80;;
53064;SDS011;38948;48.376;-4.312;2022-10-28T03:54:02;3.58;;;0.85;;
53064;SDS011;38948;48.376;-4.312;2022-10-28T03:56:28;5.63;;;0.93;;
53064;SDS011;38948;48.376;-4.312;2022-10-28T04:01:29;2.72;;;1.15;;
53064;SDS011;38948;48.376;-4.312;2022-10-28T04:03:55;2.33;;;0.82;;
53064;SDS011;38948;48.376;-4.312;2022-10-28T04:06:21;2.13;;;0.90;;
53064;SDS011;38948;48.376;-4.312;2022-10-28T04:08:47;4.50;;;1.02;;
53064;SDS011;38948;48.376;-4.312;2022-10-28T04:11:13;5.80;;;1.05;;
53064;SDS011;38948;48.376;-4.312;2022-10-28T04:13:39;2.65;;;0.73;;
53064;SDS011;38948;48.376;-4.312;2022-10-28T04:16:05;4.00;;;1.05;;
53064;SDS011;38948;48.376;-4.312;2022-10-28T04:21:00;5.72;;;1.27;;
53064;SDS011;38948;48.376;-4.312;2022-10-28T04:23:27;4.30;;;1.10;;
53064;SDS011;38948;48.376;-4.312;2022-10-28T04:25:54;2.75;;;0.40;;
53064;SDS011;38948;48.376;-4.312;2022-10-28T04:28:26;4.55;;;1.00;;
53064;SDS011;38948;48.376;-4.312;2022-10-28T04:30:52;2.60;;;0.70;;
53064;SDS011;38948;48.376;-4.312;2022-10-28T04:33:18;2.65;;;0.63;;
53064;SDS011;38948;48.376;-4.312;2022-10-28T04:35:44;5.22;;;1.48;;
53064;SDS011;38948;48.376;-4.312;2022-10-28T04:38:11;5.10;;;1.00;;
53064;SDS011;38948;48.376;-4.312;2022-10-28T04:40:45;3.08;;;0.80;;
53064;SDS011;38948;48.376;-4.312;2022-10-28T04:43:15;4.20;;;1.25;;
53064;SDS011;38948;48.376;-4.312;2022-10-28T04:45:41;4.05;;;1.10;;
53064;SDS011;38948;48.376;-4.312;2022-10-28T04:48:07;1.98;;;0.60;;
53064;SDS011;38948;48.376;-4.312;2022-10-28T04:50:36;3.97;;;0.75;;
53064;SDS011;38948;48.376;-4.312;2022-10-28T04:53:02;3.47;;;1.02;;
53064;SDS011;38948;48.376;-4.312;2022-10-28T04:55:28;3.90;;;0.95;;
53064;SDS011;38948;48.376;-4.312;2022-10-28T04:57:54;4.20;;;1.00;;
53064;SDS011;38948;48.376;-4.312;2022-10-28T05:00:21;2.35;;;0.85;;
53064;SDS011;38948;48.376;-4.312;2022-10-28T05:02:48;5.13;;;1.23;;
53064;SDS011;38948;48.376;-4.312;2022-10-28T05:05:14;4.43;;;0.95;;
53064;SDS011;38948;48.376;-4.312;2022-10-28T05:07:42;7.00;;;1.42;;
53064;SDS011;38948;48.376;-4.312;2022-10-28T05:10:08;2.53;;;0.70;;
53064;SDS011;38948;48.376;-4.312;2022-10-28T05:12:34;3.17;;;0.70;;
53064;SDS011;38948;48.376;-4.312;2022-10-28T05:15:00;2.15;;;0.70;;
53064;SDS011;38948;48.376;-4.312;2022-10-28T05:17:26;3.78;;;0.80;;
53064;SDS011;38948;48.376;-4.312;2022-10-28T05:19:58;3.85;;;1.05;;
53064;SDS011;38948;48.376;-4.312;2022-10-28T05:22:24;5.72;;;0.65;;
53064;SDS011;38948;48.376;-4.312;2022-10-28T05:24:50;2.20;;;0.50;;
53064;SDS011;38948;48.376;-4.312;2022-10-28T05:27:19;4.53;;;0.85;;
53064;SDS011;38948;48.376;-4.312;2022-10-28T05:29:45;2.13;;;0.90;;
53064;SDS011;38948;48.376;-4.312;2022-10-28T05:32:11;3.67;;;1.05;;
53064;SDS011;38948;48.376;-4.312;2022-10-28T05:34:37;2.05;;;0.55;;
53064;SDS011;38948;48.376;-4.312;2022-10-28T05:37:03;2.80;;;0.80;;
53064;SDS011;38948;48.376;-4.312;2022-10-28T05:39:30;3.85;;;0.77;;
53064;SDS011;38948;48.376;-4.312;2022-10-28T05:41:56;3.78;;;1.23;;
53064;SDS011;38948;48.376;-4.312;2022-10-28T05:44:23;2.75;;;0.80;;
53064;SDS011;38948;48.376;-4.312;2022-10-28T05:46:49;6.85;;;1.00;;
53064;SDS011;38948;48.376;-4.312;2022-10-28T05:49:18;3.58;;;0.80;;
53064;SDS011;38948;48.376;-4.312;2022-10-28T05:51:45;4.75;;;0.80;;
53064;SDS011;38948;48.376;-4.312;2022-10-28T05:54:11;1.08;;;0.57;;
53064;SDS011;38948;48.376;-4.312;2022-10-28T05:56:37;2.70;;;0.70;;
53064;SDS011;38948;48.376;-4.312;2022-10-28T05:59:03;3.55;;;0.80;;
53064;SDS011;38948;48.376;-4.312;2022-10-28T06:01:29;2.10;;;0.60;;
53064;SDS011;38948;48.376;-4.312;2022-10-28T06:03:55;5.85;;;0.82;;
53064;SDS011;38948;48.376;-4.312;2022-10-28T06:06:20;3.95;;;0.75;;
53064;SDS011;38948;48.376;-4.312;2022-10-28T06:08:46;3.78;;;0.68;;
53064;SDS011;38948;48.376;-4.312;2022-10-28T06:11:12;1.85;;;0.63;;
53064;SDS011;38948;48.376;-4.312;2022-10-28T06:13:38;4.40;;;1.00;;
53064;SDS011;38948;48.376;-4.312;2022-10-28T06:16:04;3.05;;;0.88;;
53064;SDS011;38948;48.376;-4.312;2022-10-28T06:18:31;2.25;;;0.60;;
53064;SDS011;38948;48.376;-4.312;2022-10-28T06:20:58;3.42;;;0.40;;
53064;SDS011;38948;48.376;-4.312;2022-10-28T06:23:24;1.55;;;0.55;;
53064;SDS011;38948;48.376;-4.312;2022-10-28T06:25:55;1.52;;;0.70;;
53064;SDS011;38948;48.376;-4.312;2022-10-28T06:28:21;4.22;;;0.95;;
53064;SDS011;38948;48.376;-4.312;2022-10-28T06:30:47;3.83;;;0.73;;
53064;SDS011;38948;48.376;-4.312;2022-10-28T06:33:13;2.15;;;0.40;;
53064;SDS011;38948;48.376;-4.312;2022-10-28T06:35:39;1.92;;;0.57;;
53064;SDS011;38948;48.376;-4.312;2022-10-28T06:38:05;5.78;;;0.57;;
53064;SDS011;38948;48.376;-4.312;2022-10-28T06:40:31;2.70;;;1.05;;
53064;SDS011;38948;48.376;-4.312;2022-10-28T06:43:00;1.05;;;0.50;;
53064;SDS011;38948;48.376;-4.312;2022-10-28T06:45:28;1.40;;;0.60;;
53064;SDS011;38948;48.376;-4.312;2022-10-28T06:47:58;2.33;;;0.57;;
53064;SDS011;38948;48.376;-4.312;2022-10-28T06:50:25;3.70;;;0.57;;
53064;SDS011;38948;48.376;-4.312;2022-10-28T06:52:55;4.30;;;0.70;;
53064;SDS011;38948;48.376;-4.312;2022-10-28T06:55:25;1.30;;;0.70;;
53064;SDS011;38948;48.376;-4.312;2022-10-28T06:57:51;2.15;;;0.45;;
53064;SDS011;38948;48.376;-4.312;2022-10-28T07:00:18;4.65;;;0.70;;
53064;SDS011;38948;48.376;-4.312;2022-10-28T07:02:44;2.03;;;0.50;;
53064;SDS011;38948;48.376;-4.312;2022-10-28T07:05:15;4.18;;;0.57;;
53064;SDS011;38948;48.376;-4.312;2022-10-28T07:07:41;2.17;;;0.70;;
53064;SDS011;38948;48.376;-4.312;2022-10-28T07:10:06;1.58;;;0.50;;
53064;SDS011;38948;48.376;-4.312;2022-10-28T07:12:32;2.10;;;0.68;;
53064;SDS011;38948;48.376;-4.312;2022-10-28T07:14:58;2.28;;;0.40;;
53064;SDS011;38948;48.376;-4.312;2022-10-28T07:17:25;3.63;;;0.70;;
53064;SDS011;38948;48.376;-4.312;2022-10-28T07:19:51;2.67;;;0.63;;
53064;SDS011;38948;48.376;-4.312;2022-10-28T07:22:19;2.65;;;0.60;;
53064;SDS011;38948;48.376;-4.312;2022-10-28T07:24:45;3.85;;;0.50;;
53064;SDS011;38948;48.376;-4.312;2022-10-28T07:27:12;5.72;;;0.90;;
53064;SDS011;38948;48.376;-4.312;2022-10-28T07:29:38;3.20;;;0.70;;
53064;SDS011;38948;48.376;-4.312;2022-10-28T07:32:04;2.75;;;0.57;;
53064;SDS011;38948;48.376;-4.312;2022-10-28T07:34:32;10.10;;;0.80;;
53064;SDS011;38948;48.376;-4.312;2022-10-28T07:36:58;7.78;;;0.90;;
53064;SDS011;38948;48.376;-4.312;2022-10-28T07:39:24;8.98;;;1.70;;
53064;SDS011;38948;48.376;-4.312;2022-10-28T07:41:50;2.58;;;0.63;;
53064;SDS011;38948;48.376;-4.312;2022-10-28T07:44:16;7.50;;;1.27;;
53064;SDS011;38948;48.376;-4.312;2022-10-28T07:46:42;4.20;;;0.95;;
53064;SDS011;38948;48.376;-4.312;2022-10-28T07:49:08;4.03;;;0.65;;
53064;SDS011;38948;48.376;-4.312;2022-10-28T07:51:34;6.43;;;0.70;;
53064;SDS011;38948;48.376;-4.312;2022-10-28T07:53:59;6.18;;;0.70;;
53064;SDS011;38948;48.376;-4.312;2022-10-28T07:56:25;11.20;;;1.50;;
53064;SDS011;38948;48.376;-4.312;2022-10-28T07:58:51;6.50;;;1.27;;
53064;SDS011;38948;48.376;-4.312;2022-10-28T08:01:18;5.00;;;1.08;;
53064;SDS011;38948;48.376;-4.312;2022-10-28T08:03:45;8.88;;;2.03;;
53064;SDS011;38948;48.376;-4.312;2022-10-28T08:06:15;7.47;;;1.70;;
53064;SDS011;38948;48.376;-4.312;2022-10-28T08:08:48;10.05;;;2.15;;
53064;SDS011;38948;48.376;-4.312;2022-10-28T08:11:18;8.38;;;1.90;;
53064;SDS011;38948;48.376;-4.312;2022-10-28T08:13:48;6.07;;;1.80;;
53064;SDS011;38948;48.376;-4.312;2022-10-28T08:16:15;6.93;;;2.17;;
53064;SDS011;38948;48.376;-4.312;2022-10-28T08:18:41;7.65;;;3.00;;
53064;SDS011;38948;48.376;-4.312;2022-10-28T08:21:08;9.77;;;2.28;;
53064;SDS011;38948;48.376;-4.312;2022-10-28T08:23:35;10.10;;;2.78;;
53064;SDS011;38948;48.376;-4.312;2022-10-28T08:26:02;12.00;;;2.50;;
53064;SDS011;38948;48.376;-4.312;2022-10-28T08:28:28;7.40;;;2.50;;
53064;SDS011;38948;48.376;-4.312;2022-10-28T08:30:58;10.70;;;2.95;;
53064;SDS011;38948;48.376;-4.312;2022-10-28T08:33:26;13.68;;;4.60;;
53064;SDS011;38948;48.376;-4.312;2022-10-28T08:35:52;9.30;;;3.22;;
53064;SDS011;38948;48.376;-4.312;2022-10-28T08:38:19;9.57;;;3.88;;
53064;SDS011;38948;48.376;-4.312;2022-10-28T08:40:52;13.32;;;4.00;;
53064;SDS011;38948;48.376;-4.312;2022-10-28T08:49:03;10.63;;;2.97;;
53064;SDS011;38948;48.376;-4.312;2022-10-28T08:54:23;7.22;;;2.05;;
53064;SDS011;38948;48.376;-4.312;2022-10-28T08:56:55;6.93;;;2.58;;
53064;SDS011;38948;48.376;-4.312;2022-10-28T08:59:28;10.63;;;2.30;;
53064;SDS011;38948;48.376;-4.312;2022-10-28T09:04:44;10.07;;;2.83;;
53064;SDS011;38948;48.376;-4.312;2022-10-28T09:07:17;14.82;;;2.53;;
53064;SDS011;38948;48.376;-4.312;2022-10-28T09:09:45;4.28;;;1.98;;
53064;SDS011;38948;48.376;-4.312;2022-10-28T09:20:13;7.13;;;1.80;;
53064;SDS011;38948;48.376;-4.312;2022-10-28T09:25:14;6.95;;;1.60;;
53064;SDS011;38948;48.376;-4.312;2022-10-28T09:27:52;5.25;;;1.58;;
53064;SDS011;38948;48.376;-4.312;2022-10-28T09:35:41;7.78;;;1.65;;
53064;SDS011;38948;48.376;-4.312;2022-10-28T09:38:43;4.93;;;1.38;;
53064;SDS011;38948;48.376;-4.312;2022-10-28T09:41:16;6.97;;;1.73;;
53064;SDS011;38948;48.376;-4.312;2022-10-28T09:43:54;5.95;;;1.30;;
53064;SDS011;38948;48.376;-4.312;2022-10-28T09:46:29;9.35;;;1.35;;
53064;SDS011;38948;48.376;-4.312;2022-10-28T09:48:58;5.20;;;1.08;;
53064;SDS011;38948;48.376;-4.312;2022-10-28T09:51:39;3.78;;;1.00;;
53064;SDS011;38948;48.376;-4.312;2022-10-28T09:54:31;5.28;;;0.93;;
53064;SDS011;38948;48.376;-4.312;2022-10-28T09:57:00;9.85;;;1.13;;
53064;SDS011;38948;48.376;-4.312;2022-10-28T09:59:27;2.40;;;0.82;;
53064;SDS011;38948;48.376;-4.312;2022-10-28T10:01:53;4.40;;;0.90;;
53064;SDS011;38948;48.376;-4.312;2022-10-28T10:04:22;7.25;;;0.85;;
53064;SDS011;38948;48.376;-4.312;2022-10-28T10:06:55;6.18;;;1.25;;
53064;SDS011;38948;48.376;-4.312;2022-10-28T10:09:25;4.85;;;1.00;;
53064;SDS011;38948;48.376;-4.312;2022-10-28T10:11:54;4.95;;;0.95;;
53064;SDS011;38948;48.376;-4.312;2022-10-28T10:14:28;3.55;;;0.80;;
53064;SDS011;38948;48.376;-4.312;2022-10-28T10:17:09;5.05;;;1.10;;
53064;SDS011;38948;48.376;-4.312;2022-10-28T10:19:58;4.10;;;1.10;;
53064;SDS011;38948;48.376;-4.312;2022-10-28T10:22:37;4.65;;;0.77;;
53064;SDS011;38948;48.376;-4.312;2022-10-28T10:25:38;4.05;;;0.75;;
53064;SDS011;38948;48.376;-4.312;2022-10-28T10:28:13;6.30;;;1.20;;
53064;SDS011;38948;48.376;-4.312;2022-10-28T10:30:50;6.03;;;1.40;;
53064;SDS011;38948;48.376;-4.312;2022-10-28T10:33:19;6.32;;;1.58;;
53064;SDS011;38948;48.376;-4.312;2022-10-28T10:36:04;11.55;;;2.05;;
53064;SDS011;38948;48.376;-4.312;2022-10-28T10:39:00;7.53;;;1.88;;
53064;SDS011;38948;48.376;-4.312;2022-10-28T10:41:41;10.93;;;1.80;;
53064;SDS011;38948;48.376;-4.312;2022-10-28T10:46:48;7.10;;;2.88;;
53064;SDS011;38948;48.376;-4.312;2022-10-28T10:49:33;3.88;;;1.20;;
53064;SDS011;38948;48.376;-4.312;2022-10-28T10:52:12;4.65;;;1.25;;
53064;SDS011;38948;48.376;-4.312;2022-10-28T10:54:45;7.65;;;1.20;;
53064;SDS011;38948;48.376;-4.312;2022-10-28T10:57:22;6.72;;;1.40;;
53064;SDS011;38948;48.376;-4.312;2022-10-28T10:59:51;5.45;;;1.30;;
53064;SDS011;38948;48.376;-4.312;2022-10-28T11:04:48;5.90;;;1.38;;
53064;SDS011;38948;48.376;-4.312;2022-10-28T11:07:16;4.78;;;1.25;;
53064;SDS011;38948;48.376;-4.312;2022-10-28T11:09:42;2.85;;;1.15;;
53064;SDS011;38948;48.376;-4.312;2022-10-28T11:12:15;5.95;;;1.13;;
53064;SDS011;38948;48.376;-4.312;2022-10-28T11:15:05;1.85;;;0.70;;
53064;SDS011;38948;48.376;-4.312;2022-10-28T11:17:55;6.95;;;1.65;;
53064;SDS011;38948;48.376;-4.312;2022-10-28T11:26:13;7.90;;;0.90;;
53064;SDS011;38948;48.376;-4.312;2022-10-28T11:37:20;3.00;;;0.90;;
53064;SDS011;38948;48.376;-4.312;2022-10-28T11:45:12;2.83;;;0.90;;
53064;SDS011;38948;48.376;-4.312;2022-10-28T11:53:26;8.77;;;1.20;;
53064;SDS011;38948;48.376;-4.312;2022-10-28T11:59:08;3.72;;;0.80;;
53064;SDS011;38948;48.376;-4.312;2022-10-28T12:10:17;7.32;;;1.63;;
53064;SDS011;38948;48.376;-4.312;2022-10-28T12:15:38;5.38;;;0.95;;
53064;SDS011;38948;48.376;-4.312;2022-10-28T12:18:10;4.05;;;0.70;;
53064;SDS011;38948;48.376;-4.312;2022-10-28T12:20:41;4.30;;;1.10;;
53064;SDS011;38948;48.376;-4.312;2022-10-28T12:23:17;3.50;;;0.70;;
53064;SDS011;38948;48.376;-4.312;2022-10-28T12:25:46;4.47;;;0.70;;
53064;SDS011;38948;48.376;-4.312;2022-10-28T12:31:14;5.43;;;0.70;;
53064;SDS011;38948;48.376;-4.312;2022-10-28T12:36:32;3.35;;;0.85;;
53064;SDS011;38948;48.376;-4.312;2022-10-28T12:39:10;0.95;;;0.63;;
53064;SDS011;38948;48.376;-4.312;2022-10-28T12:41:58;4.22;;;0.47;;
53064;SDS011;38948;48.376;-4.312;2022-10-28T12:44:28;2.40;;;0.40;;
53064;SDS011;38948;48.376;-4.312;2022-10-28T12:58:00;3.03;;;0.68;;
53064;SDS011;38948;48.376;-4.312;2022-10-28T13:03:00;3.83;;;0.80;;
53064;SDS011;38948;48.376;-4.312;2022-10-28T13:16:29;9.38;;;0.93;;
53064;SDS011;38948;48.376;-4.312;2022-10-28T13:27:25;7.70;;;1.30;;
53064;SDS011;38948;48.376;-4.312;2022-10-28T13:29:52;13.27;;;1.40;;
53064;SDS011;38948;48.376;-4.312;2022-10-28T13:32:34;4.88;;;1.00;;
53064;SDS011;38948;48.376;-4.312;2022-10-28T13:35:21;9.20;;;1.63;;
53064;SDS011;38948;48.376;-4.312;2022-10-28T13:37:50;9.48;;;1.00;;
53064;SDS011;38948;48.376;-4.312;2022-10-28T13:42:57;5.63;;;0.90;;
53064;SDS011;38948;48.376;-4.312;2022-10-28T13:58:50;8.02;;;1.02;;
53064;SDS011;38948;48.376;-4.312;2022-10-28T14:04:25;5.65;;;1.13;;
53064;SDS011;38948;48.376;-4.312;2022-10-28T14:07:16;6.40;;;0.97;;
53064;SDS011;38948;48.376;-4.312;2022-10-28T14:09:45;4.75;;;1.45;;
53064;SDS011;38948;48.376;-4.312;2022-10-28T14:12:22;6.50;;;1.58;;
53064;SDS011;38948;48.376;-4.312;2022-10-28T14:20:06;9.23;;;1.20;;
53064;SDS011;38948;48.376;-4.312;2022-10-28T14:33:44;8.43;;;1.45;;
53064;SDS011;38948;48.376;-4.312;2022-10-28T14:50:31;3.83;;;0.90;;
53064;SDS011;38948;48.376;-4.312;2022-10-28T14:52:45;4.28;;;1.23;;
53064;SDS011;38948;48.376;-4.312;2022-10-28T14:55:30;7.75;;;1.08;;
53064;SDS011;38948;48.376;-4.312;2022-10-28T15:00:42;5.38;;;0.98;;
53064;SDS011;38948;48.376;-4.312;2022-10-28T15:03:19;4.53;;;0.95;;
53064;SDS011;38948;48.376;-4.312;2022-10-28T15:05:45;4.15;;;1.20;;
53064;SDS011;38948;48.376;-4.312;2022-10-28T15:08:11;8.43;;;0.95;;
53064;SDS011;38948;48.376;-4.312;2022-10-28T15:10:37;6.22;;;0.68;;
53064;SDS011;38948;48.376;-4.312;2022-10-28T15:13:03;4.20;;;1.38;;
53064;SDS011;38948;48.376;-4.312;2022-10-28T15:15:30;5.75;;;0.90;;
53064;SDS011;38948;48.376;-4.312;2022-10-28T15:18:01;11.48;;;1.25;;
53064;SDS011;38948;48.376;-4.312;2022-10-28T15:20:45;3.70;;;1.48;;
53064;SDS011;38948;48.376;-4.312;2022-10-28T15:23:23;6.55;;;1.33;;
53064;SDS011;38948;48.376;-4.312;2022-10-28T15:26:10;6.18;;;1.23;;
53064;SDS011;38948;48.376;-4.312;2022-10-28T15:28:36;3.20;;;0.80;;
53064;SDS011;38948;48.376;-4.312;2022-10-28T15:31:06;4.53;;;1.13;;
53064;SDS011;38948;48.376;-4.312;2022-10-28T15:33:40;5.75;;;1.77;;
53064;SDS011;38948;48.376;-4.312;2022-10-28T15:36:07;6.78;;;1.40;;
53064;SDS011;38948;48.376;-4.312;2022-10-28T15:39:06;5.82;;;1.25;;
53064;SDS011;38948;48.376;-4.312;2022-10-28T15:41:41;4.88;;;1.00;;
53064;SDS011;38948;48.376;-4.312;2022-10-28T15:47:14;6.40;;;1.52;;
53064;SDS011;38948;48.376;-4.312;2022-10-28T15:49:55;6.10;;;1.17;;
53064;SDS011;38948;48.376;-4.312;2022-10-28T15:52:40;7.45;;;1.10;;
53064;SDS011;38948;48.376;-4.312;2022-10-28T15:57:53;2.40;;;0.88;;
53064;SDS011;38948;48.376;-4.312;2022-10-28T16:00:22;3.10;;;0.80;;
53064;SDS011;38948;48.376;-4.312;2022-10-28T16:02:52;3.33;;;0.90;;
53064;SDS011;38948;48.376;-4.312;2022-10-28T16:07:59;6.18;;;1.00;;
53064;SDS011;38948;48.376;-4.312;2022-10-28T16:10:30;2.63;;;0.70;;
53064;SDS011;38948;48.376;-4.312;2022-10-28T16:13:00;3.45;;;0.95;;
53064;SDS011;38948;48.376;-4.312;2022-10-28T16:15:29;5.72;;;0.90;;
53064;SDS011;38948;48.376;-4.312;2022-10-28T16:17:56;4.78;;;1.17;;
53064;SDS011;38948;48.376;-4.312;2022-10-28T16:20:24;4.78;;;0.80;;
53064;SDS011;38948;48.376;-4.312;2022-10-28T16:22:57;2.75;;;0.70;;
53064;SDS011;38948;48.376;-4.312;2022-10-28T16:25:23;3.20;;;0.70;;
53064;SDS011;38948;48.376;-4.312;2022-10-28T16:27:48;6.78;;;1.13;;
53064;SDS011;38948;48.376;-4.312;2022-10-28T16:30:16;3.65;;;0.77;;
53064;SDS011;38948;48.376;-4.312;2022-10-28T16:32:43;3.42;;;0.88;;
53064;SDS011;38948;48.376;-4.312;2022-10-28T16:37:49;3.53;;;0.93;;
53064;SDS011;38948;48.376;-4.312;2022-10-28T16:40:18;2.45;;;0.80;;
53064;SDS011;38948;48.376;-4.312;2022-10-28T16:42:50;3.65;;;0.73;;
53064;SDS011;38948;48.376;-4.312;2022-10-28T16:45:17;2.38;;;0.70;;
53064;SDS011;38948;48.376;-4.312;2022-10-28T16:47:48;1.95;;;0.52;;
53064;SDS011;38948;48.376;-4.312;2022-10-28T16:50:15;2.97;;;0.60;;
53064;SDS011;38948;48.376;-4.312;2022-10-28T16:52:49;2.80;;;0.80;;
53064;SDS011;38948;48.376;-4.312;2022-10-28T16:55:27;3.78;;;1.17;;
53064;SDS011;38948;48.376;-4.312;2022-10-28T16:57:53;5.40;;;1.05;;
53064;SDS011;38948;48.376;-4.312;2022-10-28T17:00:18;4.35;;;0.88;;
53064;SDS011;38948;48.376;-4.312;2022-10-28T17:02:44;6.72;;;1.00;;
53064;SDS011;38948;48.376;-4.312;2022-10-28T17:05:17;3.25;;;0.73;;
53064;SDS011;38948;48.376;-4.312;2022-10-28T17:07:44;1.48;;;0.60;;
53064;SDS011;38948;48.376;-4.312;2022-10-28T17:10:10;7.75;;;1.27;;
53064;SDS011;38948;48.376;-4.312;2022-10-28T17:12:36;6.95;;;1.60;;
53064;SDS011;38948;48.376;-4.312;2022-10-28T17:15:06;7.18;;;1.80;;
53064;SDS011;38948;48.376;-4.312;2022-10-28T17:17:32;6.85;;;1.70;;
53064;SDS011;38948;48.376;-4.312;2022-10-28T17:19:58;8.35;;;1.85;;
53064;SDS011;38948;48.376;-4.312;2022-10-28T17:22:25;7.25;;;2.55;;
53064;SDS011;38948;48.376;-4.312;2022-10-28T17:24:51;9.30;;;2.55;;
53064;SDS011;38948;48.376;-4.312;2022-10-28T17:27:18;5.93;;;1.98;;
53064;SDS011;38948;48.376;-4.312;2022-10-28T17:29:44;8.98;;;1.95;;
53064;SDS011;38948;48.376;-4.312;2022-10-28T17:32:10;7.22;;;1.88;;
53064;SDS011;38948;48.376;-4.312;2022-10-28T17:34:36;7.90;;;1.40;;
53064;SDS011;38948;48.376;-4.312;2022-10-28T17:37:02;10.63;;;1.73;;
53064;SDS011;38948;48.376;-4.312;2022-10-28T17:39:31;7.05;;;1.40;;
53064;SDS011;38948;48.376;-4.312;2022-10-28T17:41:57;5.70;;;1.70;;
53064;SDS011;38948;48.376;-4.312;2022-10-28T17:44:24;5.10;;;1.52;;
53064;SDS011;38948;48.376;-4.312;2022-10-28T17:46:50;4.20;;;1.13;;
53064;SDS011;38948;48.376;-4.312;2022-10-28T17:49:16;4.10;;;1.27;;
53064;SDS011;38948;48.376;-4.312;2022-10-28T17:51:42;6.13;;;0.98;;
53064;SDS011;38948;48.376;-4.312;2022-10-28T17:54:09;6.43;;;1.30;;
53064;SDS011;38948;48.376;-4.312;2022-10-28T17:56:35;5.22;;;1.52;;
53064;SDS011;38948;48.376;-4.312;2022-10-28T17:59:01;3.63;;;1.20;;
53064;SDS011;38948;48.376;-4.312;2022-10-28T18:01:28;8.02;;;1.55;;
53064;SDS011;38948;48.376;-4.312;2022-10-28T18:03:56;2.97;;;1.13;;
53064;SDS011;38948;48.376;-4.312;2022-10-28T18:06:22;5.55;;;1.30;;
53064;SDS011;38948;48.376;-4.312;2022-10-28T18:08:48;5.45;;;1.30;;
53064;SDS011;38948;48.376;-4.312;2022-10-28T18:11:14;9.00;;;1.35;;
53064;SDS011;38948;48.376;-4.312;2022-10-28T18:13:42;7.85;;;1.10;;
53064;SDS011;38948;48.376;-4.312;2022-10-28T18:16:10;2.42;;;0.90;;
53064;SDS011;38948;48.376;-4.312;2022-10-28T18:18:37;8.93;;;1.25;;
53064;SDS011;38948;48.376;-4.312;2022-10-28T18:21:03;3.38;;;1.23;;
53064;SDS011;38948;48.376;-4.312;2022-10-28T18:23:29;4.45;;;0.88;;
53064;SDS011;38948;48.376;-4.312;2022-10-28T18:26:17;7.28;;;1.20;;
53064;SDS011;38948;48.376;-4.312;2022-10-28T18:28:42;13.95;;;1.60;;
53064;SDS011;38948;48.376;-4.312;2022-10-28T18:31:10;3.65;;;1.10;;
53064;SDS011;38948;48.376;-4.312;2022-10-28T18:33:44;7.95;;;1.15;;
53064;SDS011;38948;48.376;-4.312;2022-10-28T18:36:11;3.67;;;0.80;;